Terminal Aerodrome Forecast
Issued by NWS

Home | Current Version | Previous Version | Text Only | Print | Product List | Glossary On
Versions: 1 2 3 4 5 6 7 8 9 10 11 12 13 14 15 16 17 18
857
FTUS46 KSEW 251917 AAA
TAFCLM
TAF AMD
KCLM 251917Z 2519/2618 VRB03KT P6SM BKN015 BKN035 BKN060
     FM252100 VRB03KT P6SM FEW020 SCT040 BKN060
     FM260000 VRB03KT P6SM FEW060
     FM260600 28005KT P6SM VCFG FEW250=

USA.gov is the U.S. government's official web portal to all federal, state and local government web resources and services.